Time;durP1;ratioP1;P1;durP2;ratioP2;P2;SDS_P1;SDS_P2;PMS_P1;PMS_P2;Temp;Humidity;BMP_temperature;BMP_pressure;BME280_temperature;BME280_humidity;BME280_pressure;Samples;Min_cycle;Max_cycle;Signal;HPM_P1;HPM_P2
2022/07/03 00:01:27;;;;;;;6.88;2.55;;;;;;;15.60;100.00;101797.84;5246543;28;20029;-73
2022/07/03 00:03:57;;;;;;;3.67;2.28;;;;;;;15.50;100.00;101806.19;5246547;28;20421;-73
2022/07/03 00:06:30;;;;;;;6.47;2.53;;;;;;;15.40;100.00;101808.25;5263350;28;20067;-73
2022/07/03 00:09:04;;;;;;;6.30;2.70;;;;;;;15.29;100.00;101806.78;5250564;28;20032;-73
2022/07/03 00:11:34;;;;;;;6.80;2.60;;;;;;;15.22;100.00;101804.94;5256012;28;20404;-72
2022/07/03 00:14:05;;;;;;;5.05;2.58;;;;;;;15.16;100.00;101803.78;5248811;28;20021;-72
2022/07/03 00:16:35;;;;;;;3.35;2.30;;;;;;;15.06;100.00;101795.03;5258741;28;20032;-72
2022/07/03 00:19:07;;;;;;;8.52;3.53;;;;;;;14.97;100.00;101802.31;5266710;28;20067;-72
2022/07/03 00:21:56;;;;;;;9.07;3.50;;;;;;;14.86;100.00;101805.38;5255776;28;20023;-72
2022/07/03 00:24:49;;;;;;;6.38;2.90;;;;;;;14.74;100.00;101810.25;5266921;28;20020;-72
2022/07/03 00:27:23;;;;;;;6.55;3.10;;;;;;;14.67;100.00;101811.13;5266574;28;20052;-72
2022/07/03 00:29:58;;;;;;;9.25;3.10;;;;;;;14.63;100.00;101807.91;5262782;28;20110;-72
2022/07/03 00:32:29;;;;;;;7.70;2.97;;;;;;;14.58;100.00;101807.56;5249150;28;20028;-72
2022/07/03 00:35:01;;;;;;;6.53;3.10;;;;;;;14.52;100.00;101802.03;5263105;28;20020;-73
2022/07/03 00:37:31;;;;;;;7.85;3.28;;;;;;;14.44;100.00;101802.81;5255721;28;20066;-72
2022/07/03 00:40:02;;;;;;;9.00;3.70;;;;;;;14.37;100.00;101799.94;5264047;28;20031;-73
2022/07/03 00:42:37;;;;;;;6.72;3.00;;;;;;;14.30;100.00;101806.16;5253864;28;20043;-72
2022/07/03 00:45:09;;;;;;;7.57;3.13;;;;;;;14.23;100.00;101803.31;5266152;28;20028;-72
2022/07/03 00:47:42;;;;;;;7.65;3.15;;;;;;;14.17;100.00;101804.81;5262736;28;20043;-72
2022/07/03 00:50:13;;;;;;;6.10;3.03;;;;;;;14.15;100.00;101806.81;5244598;28;20032;-72
2022/07/03 00:52:47;;;;;;;7.10;3.60;;;;;;;14.12;100.00;101804.47;5247411;28;20032;-72
2022/07/03 00:55:18;;;;;;;10.93;3.85;;;;;;;14.07;100.00;101804.13;5266598;28;20119;-72
2022/07/03 00:57:48;;;;;;;7.38;3.35;;;;;;;14.01;100.00;101796.72;5248117;28;20560;-72
2022/07/03 01:00:19;;;;;;;4.97;3.20;;;;;;;13.93;100.00;101804.78;5257125;28;20392;-72
2022/07/03 01:02:52;;;;;;;6.28;3.30;;;;;;;13.83;100.00;101802.22;5251502;28;20384;-72
2022/07/03 01:05:40;;;;;;;6.30;3.70;;;;;;;13.79;100.00;101808.94;5264417;28;20036;-72
2022/07/03 01:08:21;;;;;;;6.28;3.60;;;;;;;13.76;100.00;101811.97;5255332;28;20024;-72
2022/07/03 01:11:14;;;;;;;6.13;3.28;;;;;;;13.76;100.00;101809.28;5261043;28;20028;-72
2022/07/03 01:13:53;;;;;;;8.52;4.07;;;;;;;13.81;100.00;101798.84;5247109;28;20024;-72
2022/07/03 01:16:38;;;;;;;7.22;3.90;;;;;;;13.90;100.00;101810.47;5254434;28;20029;-72
2022/07/03 01:19:10;;;;;;;7.18;3.90;;;;;;;13.92;100.00;101809.31;5245080;28;20404;-72
2022/07/03 01:21:49;;;;;;;8.75;4.55;;;;;;;13.94;100.00;101803.75;5255440;28;20020;-72
2022/07/03 01:24:57;;;;;;;12.88;3.95;;;;;;;13.95;100.00;101805.44;5264570;28;20051;-72
2022/07/03 01:28:08;;;;;;;6.72;3.58;;;;;;;13.96;100.00;101799.91;5253950;28;20032;-72
2022/07/03 01:30:43;;;;;;;8.88;3.47;;;;;;;14.01;100.00;101804.81;5253133;28;20023;-72
2022/07/03 01:33:32;;;;;;;7.57;3.90;;;;;;;14.04;100.00;101804.44;5266430;28;20060;-72
2022/07/03 01:36:06;;;;;;;7.35;3.33;;;;;;;14.07;100.00;101806.00;5264560;28;20677;-72
2022/07/03 01:38:40;;;;;;;7.10;3.85;;;;;;;14.08;100.00;101802.28;5244567;28;20024;-72
2022/07/03 01:41:12;;;;;;;;;;;;;;;14.09;100.00;101796.69;5258876;28;20035;-73
2022/07/03 01:44:02;;;;;;;7.90;3.65;;;;;;;14.11;100.00;101789.31;5253670;28;19908;-72
2022/07/03 01:46:33;;;;;;;7.25;3.83;;;;;;;14.10;100.00;101797.53;5250084;28;20388;-72
2022/07/03 01:49:12;;;;;;;6.40;4.25;;;;;;;14.10;100.00;101794.84;5251946;28;20094;-72
2022/07/03 01:51:50;;;;;;;10.68;4.40;;;;;;;14.13;100.00;101783.72;5252491;28;20392;-71
2022/07/03 01:54:25;;;;;;;9.02;4.32;;;;;;;14.14;100.00;101786.25;5265557;28;20487;-72
2022/07/03 01:56:56;;;;;;;5.63;3.70;;;;;;;14.12;100.00;101790.16;5261975;28;20045;-72
2022/07/03 01:59:27;;;;;;;7.60;4.40;;;;;;;14.08;100.00;101783.38;5258179;28;20472;-72
2022/07/03 02:02:09;;;;;;;9.65;4.28;;;;;;;14.04;100.00;101782.03;5244761;28;20039;-72
2022/07/03 02:05:06;;;;;;;8.10;5.20;;;;;;;14.00;100.00;101787.75;5251653;28;20027;-72
2022/07/03 02:08:00;;;;;;;6.93;4.85;;;;;;;13.97;100.00;101788.09;5247460;28;20036;-71
2022/07/03 02:10:38;;;;;;;10.10;5.20;;;;;;;13.95;100.00;101783.84;5261421;28;20108;-72
2022/07/03 02:13:17;;;;;;;16.63;5.32;;;;;;;13.96;100.00;101774.78;5257854;28;20032;-73
2022/07/03 02:15:50;;;;;;;8.55;5.40;;;;;;;13.94;100.00;101771.38;5246665;28;20605;-71
2022/07/03 02:18:39;;;;;;;7.30;5.20;;;;;;;13.86;100.00;101766.84;5261399;28;20052;-72
2022/07/03 02:21:14;;;;;;;7.95;5.03;;;;;;;13.80;100.00;101772.03;5248544;28;20362;-72
2022/07/03 02:24:25;;;;;;;8.80;5.20;;;;;;;13.77;100.00;101783.16;5265705;28;20444;-72
2022/07/03 02:27:02;;;;;;;7.93;4.80;;;;;;;13.73;100.00;101778.09;5255670;28;20032;-71
2022/07/03 02:29:40;;;;;;;7.15;5.72;;;;;;;13.71;100.00;101766.63;5266658;28;20311;-72
2022/07/03 02:32:15;;;;;;;14.25;5.78;;;;;;;13.68;100.00;101771.50;5253322;28;20031;-71
2022/07/03 02:34:55;;;;;;;11.88;5.50;;;;;;;13.63;100.00;101768.44;5248505;28;20519;-71
2022/07/03 02:37:31;;;;;;;8.35;5.43;;;;;;;13.59;100.00;101770.63;5269247;28;20036;-73
2022/07/03 02:40:21;;;;;;;11.80;5.53;;;;;;;13.57;100.00;101778.03;5263788;28;20058;-72
2022/07/03 02:43:03;;;;;;;7.93;5.40;;;;;;;13.52;100.00;101780.38;5248500;28;20036;-71
2022/07/03 02:49:17;;;;;;;15.93;5.65;;;;;;;13.41;100.00;101772.59;5268759;28;20415;-72
2022/07/03 02:51:59;;;;;;;18.02;5.25;;;;;;;13.37;100.00;101782.00;5246644;28;20031;-72
2022/07/03 02:54:41;;;;;;;13.68;5.03;;;;;;;13.34;100.00;101785.00;5247355;28;20067;-71
2022/07/03 02:57:16;;;;;;;10.02;4.47;;;;;;;13.31;100.00;101796.13;5246743;28;20111;-71
2022/07/03 03:00:03;;;;;;;9.88;5.15;;;;;;;13.29;100.00;101798.97;5267267;28;20034;-71
2022/07/03 03:02:53;;;;;;;8.80;5.00;;;;;;;13.29;100.00;101796.28;5268690;28;20052;-71
2022/07/03 03:05:46;;;;;;;12.88;5.07;;;;;;;13.33;100.00;101794.09;5263932;28;20423;-71
2022/07/03 03:08:30;;;;;;;9.48;5.40;;;;;;;13.33;100.00;101789.56;5247658;28;20369;-71
2022/07/03 03:11:07;;;;;;;10.52;5.53;;;;;;;13.32;100.00;101785.19;5266302;28;20522;-71
2022/07/03 03:13:41;;;;;;;8.40;4.57;;;;;;;13.32;100.00;101790.56;5253642;28;20029;-72
2022/07/03 03:16:14;;;;;;;8.43;4.82;;;;;;;13.35;100.00;101784.00;5255694;28;20031;-71
2022/07/03 03:18:46;;;;;;;7.95;5.20;;;;;;;13.37;100.00;101779.31;5267320;28;20473;-71
2022/07/03 03:21:19;;;;;;;9.43;4.72;;;;;;;13.38;100.00;101783.69;5267650;28;20388;-71
2022/07/03 03:23:52;;;;;;;8.45;4.60;;;;;;;13.36;100.00;101781.16;5245572;28;20029;-71
2022/07/03 03:26:25;;;;;;;9.45;5.35;;;;;;;13.36;100.00;101789.25;5247087;28;20029;-71
2022/07/03 03:28:56;;;;;;;8.20;4.68;;;;;;;13.34;100.00;101787.72;5255579;28;20024;-71
2022/07/03 03:31:27;;;;;;;5.50;4.28;;;;;;;13.32;100.00;101784.34;5267538;28;20042;-71
2022/07/03 03:33:59;;;;;;;5.95;4.50;;;;;;;13.28;100.00;101783.81;5247029;28;20043;-71
2022/07/03 03:36:29;;;;;;;9.55;4.57;;;;;;;13.26;100.00;101807.38;5262024;28;20081;-71
2022/07/03 03:39:00;;;;;;;12.90;4.63;;;;;;;13.25;100.00;101802.13;5267549;28;20032;-71
2022/07/03 03:41:32;;;;;;;8.07;4.60;;;;;;;13.25;100.00;101794.91;5267752;28;20028;-71
2022/07/03 03:44:03;;;;;;;8.32;4.45;;;;;;;13.27;100.00;101803.69;5268163;28;20024;-71
2022/07/03 03:46:34;;;;;;;7.35;4.40;;;;;;;13.30;100.00;101811.44;5248804;28;20020;-71
2022/07/03 03:49:05;;;;;;;8.10;4.72;;;;;;;13.33;100.00;101808.44;5267706;28;20042;-71
2022/07/03 03:51:36;;;;;;;5.88;4.07;;;;;;;13.38;100.00;101795.31;5267207;28;20016;-71
2022/07/03 03:54:07;;;;;;;5.93;3.90;;;;;;;13.38;100.00;101811.47;5252954;28;20031;-71
2022/07/03 03:56:38;;;;;;;8.10;4.85;;;;;;;13.39;100.00;101805.06;5246570;28;20032;-72
2022/07/03 03:59:08;;;;;;;10.10;3.80;;;;;;;13.40;100.00;101795.13;5262203;28;20372;-71
2022/07/03 04:01:39;;;;;;;11.25;3.60;;;;;;;13.42;100.00;101801.22;5258189;28;20093;-71
2022/07/03 04:04:12;;;;;;;7.00;3.90;;;;;;;13.43;100.00;101798.38;5259485;28;20020;-72
2022/07/03 04:06:42;;;;;;;5.35;3.50;;;;;;;13.45;100.00;101803.59;5263988;28;20400;-71
2022/07/03 04:09:13;;;;;;;8.20;3.22;;;;;;;13.48;100.00;101816.75;5249125;28;20069;-71
2022/07/03 04:11:43;;;;;;;11.45;3.33;;;;;;;13.48;100.00;101811.34;5258341;28;20109;-71
2022/07/03 04:14:14;;;;;;;9.68;3.08;;;;;;;13.49;100.00;101818.44;5247481;28;20033;-71
2022/07/03 04:16:44;;;;;;;7.85;2.70;;;;;;;13.50;100.00;101806.63;5259100;28;20038;-71
2022/07/03 04:19:15;;;;;;;9.10;2.90;;;;;;;13.53;100.00;101810.88;5252130;28;20028;-71
2022/07/03 04:21:46;;;;;;;4.28;2.60;;;;;;;13.60;100.00;101815.44;5256141;28;20016;-71
2022/07/03 04:24:16;;;;;;;4.85;2.67;;;;;;;13.64;100.00;101814.13;5254105;28;20023;-71
2022/07/03 04:26:47;;;;;;;5.05;2.60;;;;;;;13.68;100.00;101807.38;5253129;28;20320;-71
2022/07/03 04:29:17;;;;;;;3.90;2.38;;;;;;;13.70;100.00;101802.69;5254158;28;20032;-71
2022/07/03 04:31:48;;;;;;;8.57;2.92;;;;;;;13.72;100.00;101797.13;5251939;28;20027;-71
2022/07/03 04:34:18;;;;;;;6.32;2.55;;;;;;;13.76;100.00;101801.19;5245260;28;20040;-71
2022/07/03 04:36:49;;;;;;;4.03;2.58;;;;;;;13.75;100.00;101794.09;5250866;28;20383;-71
2022/07/03 04:39:19;;;;;;;4.57;2.40;;;;;;;13.76;100.00;101805.75;5253435;28;20021;-72
2022/07/03 04:41:50;;;;;;;7.07;2.58;;;;;;;13.71;100.00;101807.06;5264924;28;20028;-71
2022/07/03 04:44:20;;;;;;;4.00;2.30;;;;;;;13.68;100.00;101809.25;5251273;28;20028;-71
2022/07/03 04:46:51;;;;;;;7.72;2.60;;;;;;;13.63;100.00;101817.81;5251701;28;20016;-71
2022/07/03 04:49:21;;;;;;;4.43;2.30;;;;;;;13.59;100.00;101821.84;5251712;28;20032;-71
2022/07/03 04:51:53;;;;;;;3.83;2.45;;;;;;;13.57;100.00;101823.88;5244188;28;20020;-71
2022/07/03 04:54:23;;;;;;;5.63;2.20;;;;;;;13.54;100.00;101826.88;5260671;28;20480;-73
2022/07/03 04:56:54;;;;;;;5.03;2.08;;;;;;;13.58;100.00;101835.50;5263129;28;20024;-72
2022/07/03 04:59:24;;;;;;;9.02;2.70;;;;;;;13.64;100.00;101834.84;5245176;28;20028;-73
2022/07/03 05:01:55;;;;;;;2.88;2.28;;;;;;;13.71;100.00;101838.59;5255868;28;20024;-71
2022/07/03 05:04:26;;;;;;;6.60;2.55;;;;;;;13.80;100.00;101834.06;5265162;28;20425;-71
2022/07/03 05:06:56;;;;;;;11.60;2.80;;;;;;;13.91;100.00;101836.47;5253448;28;20048;-71
2022/07/03 05:09:27;;;;;;;4.65;2.17;;;;;;;14.04;100.00;101833.28;5265446;28;20036;-71
2022/07/03 05:11:57;;;;;;;3.58;2.38;;;;;;;14.19;100.00;101840.56;5265361;28;20111;-71
2022/07/03 05:14:28;;;;;;;4.95;1.73;;;;;;;14.39;100.00;101837.56;5244401;28;20402;-71
2022/07/03 05:16:58;;;;;;;3.70;1.77;;;;;;;14.61;100.00;101831.56;5244331;28;20111;-71
2022/07/03 05:19:29;;;;;;;5.75;1.90;;;;;;;14.84;100.00;101838.97;5247292;28;20024;-72
2022/07/03 05:21:59;;;;;;;5.90;1.80;;;;;;;15.01;100.00;101840.66;5254529;28;20031;-71
2022/07/03 05:24:30;;;;;;;3.30;1.70;;;;;;;15.19;100.00;101838.56;5253122;28;20404;-72
2022/07/03 05:27:00;;;;;;;19.42;2.08;;;;;;;15.31;100.00;101838.19;5254675;28;20131;-72
2022/07/03 05:29:31;;;;;;;4.32;1.63;;;;;;;15.41;100.00;101836.13;5244127;28;20029;-72
2022/07/03 05:32:01;;;;;;;5.63;2.28;;;;;;;15.53;100.00;101838.28;5247113;28;20404;-72
2022/07/03 05:34:32;;;;;;;3.95;2.22;;;;;;;15.65;100.00;101844.19;5241829;28;20142;-72
2022/07/03 05:37:03;;;;;;;9.05;2.28;;;;;;;15.67;100.00;101849.44;5255465;28;20334;-72
2022/07/03 05:39:33;;;;;;;6.10;1.92;;;;;;;15.80;100.00;101836.19;5242215;28;20028;-72
2022/07/03 05:42:05;;;;;;;7.55;2.20;;;;;;;15.88;100.00;101840.72;5242363;28;20036;-72
2022/07/03 05:44:35;;;;;;;9.32;2.58;;;;;;;15.90;100.00;101836.81;5241805;28;20107;-72
2022/07/03 05:47:06;;;;;;;3.85;2.17;;;;;;;15.97;100.00;101845.06;5249554;28;20088;-72
2022/07/03 05:49:37;;;;;;;7.20;3.00;;;;;;;15.97;100.00;101845.91;5249049;28;20024;-72
2022/07/03 05:52:07;;;;;;;7.30;3.03;;;;;;;16.04;100.00;101846.03;5253180;28;20032;-72
2022/07/03 05:54:38;;;;;;;8.18;2.33;;;;;;;16.10;100.00;101845.31;5233724;28;20742;-72
2022/07/03 05:57:08;;;;;;;3.95;2.50;;;;;;;16.37;100.00;101840.44;5252994;28;20028;-72
2022/07/03 05:59:39;;;;;;;8.43;2.40;;;;;;;16.56;100.00;101845.34;5254190;28;21324;-72
2022/07/03 06:02:09;;;;;;;6.43;2.90;;;;;;;16.67;100.00;101855.75;5243108;28;20497;-72
2022/07/03 06:04:40;;;;;;;5.43;2.60;;;;;;;16.93;100.00;101852.69;5245968;28;20025;-72
2022/07/03 06:07:11;;;;;;;8.43;2.30;;;;;;;17.61;100.00;101846.16;5240378;28;20445;-72
2022/07/03 06:09:41;;;;;;;4.75;2.30;;;;;;;18.83;100.00;101850.91;5250828;28;20161;-72
2022/07/03 06:12:12;;;;;;;3.80;1.60;;;;;;;19.72;100.00;101853.81;5257305;28;21350;-72
2022/07/03 06:14:42;;;;;;;5.38;2.38;;;;;;;20.21;100.00;101852.75;5251793;28;20538;-72
2022/07/03 06:17:13;;;;;;;6.65;2.50;;;;;;;20.83;100.00;101861.66;5247833;28;20500;-72
2022/07/03 06:19:43;;;;;;;3.45;2.00;;;;;;;21.03;100.00;101867.09;5243604;28;20013;-72
2022/07/03 06:22:14;;;;;;;5.10;2.38;;;;;;;21.02;100.00;101859.97;5239897;28;20444;-72
2022/07/03 06:24:44;;;;;;;5.82;2.15;;;;;;;21.58;100.00;101856.75;5243964;28;20028;-72
2022/07/03 06:27:15;;;;;;;5.05;2.10;;;;;;;21.71;100.00;101860.28;5248582;28;20028;-72
2022/07/03 06:29:45;;;;;;;5.32;2.42;;;;;;;21.82;100.00;101855.19;5242762;28;20020;-72
2022/07/03 06:32:16;;;;;;;5.30;2.35;;;;;;;22.13;100.00;101855.28;5244635;28;20036;-72
2022/07/03 06:34:47;;;;;;;3.83;2.08;;;;;;;21.77;100.00;101864.03;5246993;28;20115;-72
2022/07/03 06:37:18;;;;;;;4.65;2.13;;;;;;;21.59;100.00;101855.72;5253810;28;20054;-72
2022/07/03 06:39:49;;;;;;;5.63;2.03;;;;;;;21.64;100.00;101848.56;5249131;28;20024;-72
2022/07/03 06:42:19;;;;;;;3.50;1.85;;;;;;;22.28;100.00;101852.25;5252603;28;20269;-73
2022/07/03 06:44:50;;;;;;;3.78;1.95;;;;;;;22.71;100.00;101848.81;5245115;28;20028;-73
2022/07/03 06:47:20;;;;;;;4.68;1.63;;;;;;;23.04;100.00;101854.00;5253217;28;20031;-72
2022/07/03 06:49:51;;;;;;;5.40;1.77;;;;;;;23.72;100.00;101855.88;5247976;28;20028;-73
2022/07/03 06:52:21;;;;;;;4.50;1.63;;;;;;;24.40;100.00;101852.88;5249375;28;20070;-73
2022/07/03 06:54:52;;;;;;;3.38;1.60;;;;;;;23.98;100.00;101860.16;5258071;28;20020;-73
2022/07/03 06:57:22;;;;;;;7.72;2.35;;;;;;;23.93;100.00;101858.13;5256315;28;20452;-72
2022/07/03 06:59:53;;;;;;;3.92;1.77;;;;;;;22.80;100.00;101863.91;5259529;28;20032;-73
2022/07/03 07:02:23;;;;;;;4.55;1.83;;;;;;;21.83;100.00;101871.38;5246016;28;20016;-72
2022/07/03 07:04:54;;;;;;;8.73;2.05;;;;;;;21.12;100.00;101871.31;5261088;28;20077;-72
2022/07/03 07:07:25;;;;;;;4.68;1.95;;;;;;;21.20;100.00;101865.63;5245303;28;20031;-73
2022/07/03 07:09:55;;;;;;;5.50;1.73;;;;;;;21.51;100.00;101864.97;5258745;28;20024;-73
2022/07/03 07:12:26;;;;;;;6.32;1.52;;;;;;;22.03;100.00;101864.97;5259448;28;20024;-73
2022/07/03 07:14:56;;;;;;;5.93;1.80;;;;;;;22.11;100.00;101862.03;5253126;28;20477;-73
2022/07/03 07:17:27;;;;;;;2.75;1.75;;;;;;;22.35;100.00;101864.00;5252963;28;20181;-73
2022/07/03 07:19:58;;;;;;;7.40;2.00;;;;;;;22.46;100.00;101857.84;5256631;28;20029;-73
2022/07/03 07:22:28;;;;;;;3.40;1.33;;;;;;;23.02;100.00;101869.00;5250874;28;20089;-72
2022/07/03 07:24:59;;;;;;;5.70;1.63;;;;;;;23.44;100.00;101872.78;5255251;28;20107;-73
2022/07/03 07:27:30;;;;;;;3.05;1.38;;;;;;;23.51;100.00;101868.94;5248158;28;20073;-73
2022/07/03 07:30:00;;;;;;;4.22;1.48;;;;;;;23.10;100.00;101874.19;5252038;28;20020;-73
2022/07/03 07:32:31;;;;;;;4.07;1.30;;;;;;;23.18;100.00;101873.91;5264413;28;20028;-73
2022/07/03 07:35:01;;;;;;;3.90;1.45;;;;;;;23.37;100.00;101872.88;5264837;28;20243;-73
2022/07/03 07:37:32;;;;;;;4.93;1.38;;;;;;;22.85;100.00;101875.00;5265640;28;20020;-73
2022/07/03 07:40:03;;;;;;;2.05;1.33;;;;;;;22.14;100.00;101883.44;5251684;28;20481;-73
2022/07/03 07:42:34;;;;;;;7.72;1.77;;;;;;;21.69;100.00;101880.69;5252641;28;20042;-73
2022/07/03 07:45:05;;;;;;;4.75;1.20;;;;;;;22.08;100.00;101879.66;5262718;28;20016;-73
2022/07/03 07:47:38;;;;;;;4.30;1.40;;;;;;;22.53;100.00;101879.66;5245442;28;20055;-73
2022/07/03 07:50:09;;;;;;;6.05;1.70;;;;;;;22.56;100.00;101881.13;5244276;28;20017;-73
2022/07/03 07:52:40;;;;;;;5.38;1.50;;;;;;;22.67;100.00;101880.41;5243828;28;20048;-73
2022/07/03 07:55:10;;;;;;;3.92;1.48;;;;;;;23.59;100.00;101884.19;5249653;28;20468;-73
2022/07/03 07:57:41;;;;;;;6.13;1.90;;;;;;;24.07;100.00;101880.72;5262621;28;20051;-73
2022/07/03 08:00:15;;;;;;;4.00;1.55;;;;;;;24.37;100.00;101886.25;5264044;28;20019;-74
2022/07/03 08:05:36;;;;;;;3.60;1.40;;;;;;;25.24;100.00;101882.97;5254508;28;20052;-73
2022/07/03 08:08:08;;;;;;;5.97;1.90;;;;;;;25.46;98.00;101874.97;5249380;28;20058;-74
2022/07/03 08:10:42;;;;;;;3.58;1.27;;;;;;;25.52;98.48;101882.22;5264630;28;20024;-74
2022/07/03 08:13:15;;;;;;;4.55;1.60;;;;;;;25.33;98.62;101870.53;5244422;28;20032;-74
2022/07/03 08:15:47;;;;;;;3.08;1.30;;;;;;;25.17;100.00;101874.84;5257821;28;20016;-74
2022/07/03 08:18:18;;;;;;;22.55;3.85;;;;;;;25.86;90.97;101871.44;5252480;28;20031;-74
2022/07/03 08:20:48;;;;;;;4.30;1.52;;;;;;;24.94;95.64;101870.13;5251389;28;20100;-74
2022/07/03 08:23:19;;;;;;;3.25;1.40;;;;;;;24.38;100.00;101865.97;5255401;28;20491;-74
2022/07/03 08:25:49;;;;;;;5.45;1.50;;;;;;;24.10;100.00;101863.81;5257472;28;20477;-74
2022/07/03 08:28:20;;;;;;;7.07;1.60;;;;;;;24.85;100.00;101863.34;5248002;28;20098;-74
2022/07/03 08:30:50;;;;;;;3.53;1.15;;;;;;;25.24;100.00;101872.81;5246163;28;20024;-74
2022/07/03 08:33:21;;;;;;;6.10;1.38;;;;;;;25.43;98.34;101873.50;5243995;28;20559;-74
2022/07/03 08:35:51;;;;;;;7.07;1.42;;;;;;;25.37;94.62;101866.25;5243254;28;20085;-74
2022/07/03 08:38:30;;;;;;;5.28;1.20;;;;;;;25.61;94.20;101874.47;5242781;28;20078;-74
2022/07/03 08:41:02;;;;;;;5.68;1.60;;;;;;;25.77;99.38;101871.00;5250963;28;20456;-74
2022/07/03 08:43:34;;;;;;;7.63;1.55;;;;;;;26.00;90.08;101873.66;5247762;28;20392;-74
2022/07/03 08:46:05;;;;;;;3.95;1.58;;;;;;;26.49;83.73;101853.97;5242241;28;20028;-74
2022/07/03 08:48:36;;;;;;;3.00;1.10;;;;;;;26.42;83.90;101867.03;5263934;28;20016;-74
2022/07/03 08:51:08;;;;;;;3.00;1.20;;;;;;;26.14;89.74;101867.88;5243416;28;20230;-74
2022/07/03 08:53:39;;;;;;;4.63;1.20;;;;;;;26.18;88.44;101880.06;5258062;28;20024;-73
2022/07/03 08:56:10;;;;;;;3.83;1.10;;;;;;;26.44;84.02;101864.88;5248975;28;20020;-73
2022/07/03 08:58:42;;;;;;;4.10;1.20;;;;;;;26.30;82.47;101869.81;5250609;28;20108;-74
2022/07/03 09:01:16;;;;;;;3.38;1.40;;;;;;;25.43;88.92;101869.94;5250516;28;20024;-74
2022/07/03 09:03:47;;;;;;;9.63;1.73;;;;;;;25.03;97.05;101867.88;5264086;28;20379;-74
2022/07/03 09:06:17;;;;;;;5.10;1.60;;;;;;;24.15;100.00;101865.88;5249054;28;20362;-74
2022/07/03 09:08:49;;;;;;;6.72;1.65;;;;;;;23.54;100.00;101864.88;5263856;28;20104;-73
2022/07/03 09:11:19;;;;;;;4.40;1.35;;;;;;;23.39;100.00;101867.16;5245610;28;20078;-74
2022/07/03 09:13:50;;;;;;;3.40;0.90;;;;;;;24.15;100.00;101865.88;5241774;28;20064;-73
2022/07/03 09:16:20;;;;;;;3.92;1.13;;;;;;;24.69;100.00;101864.84;5256089;28;20028;-73
2022/07/03 09:18:51;;;;;;;2.08;0.95;;;;;;;24.44;100.00;101862.28;5256150;28;20040;-73
2022/07/03 09:21:21;;;;;;;4.68;0.98;;;;;;;24.77;100.00;101869.19;5255969;28;20024;-73
2022/07/03 09:23:52;;;;;;;3.10;0.85;;;;;;;24.94;100.00;101872.06;5242877;28;20123;-73
2022/07/03 09:26:27;;;;;;;4.90;1.20;;;;;;;25.10;100.00;101871.38;5242870;28;20111;-74
2022/07/03 09:28:58;;;;;;;2.25;1.00;;;;;;;25.46;97.91;101866.72;5249912;28;20051;-74
2022/07/03 09:31:30;;;;;;;4.43;1.27;;;;;;;26.06;92.37;101866.34;5243147;28;20029;-74
2022/07/03 09:34:04;;;;;;;6.85;1.10;;;;;;;25.89;90.67;101873.69;5260899;28;20515;-73
2022/07/03 09:36:48;;;;;;;4.15;1.70;;;;;;;26.72;84.76;101869.50;5251537;28;20531;-74
2022/07/03 09:39:21;;;;;;;4.80;1.02;;;;;;;26.34;79.99;101884.75;5241766;28;20033;-73
2022/07/03 09:42:11;;;;;;;4.70;1.10;;;;;;;25.60;87.78;101884.59;5258779;28;20116;-73
2022/07/03 09:47:30;;;;;;;6.03;0.80;;;;;;;25.04;93.20;101886.84;5253696;28;20017;-74
2022/07/03 09:50:05;;;;;;;3.85;0.95;;;;;;;24.66;93.15;101887.28;5246435;28;20024;-74
2022/07/03 09:52:37;;;;;;;2.05;0.88;;;;;;;24.56;91.92;101880.69;5242532;28;20020;-74
2022/07/03 09:55:08;;;;;;;3.83;0.77;;;;;;;24.03;99.98;101874.03;5255474;28;20108;-74
2022/07/03 09:57:41;;;;;;;3.70;0.80;;;;;;;24.09;99.27;101883.22;5251604;28;20103;-74
2022/07/03 10:00:31;;;;;;;3.75;1.10;;;;;;;24.10;100.00;101885.75;5248189;28;20074;-74
2022/07/03 10:03:06;;;;;;;3.70;1.17;;;;;;;24.39;95.58;101878.59;5246580;28;20112;-74
2022/07/03 10:05:39;;;;;;;4.53;0.90;;;;;;;24.45;95.70;101885.06;5253130;28;20068;-74
2022/07/03 10:08:11;;;;;;;1.92;0.70;;;;;;;24.74;94.97;101886.94;5243992;28;20028;-74
2022/07/03 10:10:44;;;;;;;1.38;0.70;;;;;;;25.29;89.63;101886.66;5242173;28;20035;-74
2022/07/03 10:13:16;;;;;;;6.20;0.85;;;;;;;25.56;85.37;101886.19;5242044;28;20031;-74
2022/07/03 10:15:46;;;;;;;3.50;0.73;;;;;;;25.64;83.82;101880.28;5242655;28;20024;-74
2022/07/03 10:18:22;;;;;;;1.42;0.70;;;;;;;25.44;83.24;101890.84;5255338;28;20037;-74
2022/07/03 10:20:57;;;;;;;1.83;0.80;;;;;;;25.46;81.75;101884.03;5244474;28;20020;-74
2022/07/03 10:23:28;;;;;;;4.20;0.95;;;;;;;24.82;84.42;101883.03;5263059;28;20316;-74
2022/07/03 10:25:59;;;;;;;3.10;0.57;;;;;;;24.88;88.68;101887.56;5243476;28;20021;-74
2022/07/03 10:28:31;;;;;;;2.75;0.77;;;;;;;24.76;86.49;101889.47;5247516;28;20031;-74
2022/07/03 10:31:02;;;;;;;4.78;1.00;;;;;;;24.15;87.81;101885.91;5251627;28;20310;-74
2022/07/03 10:33:36;;;;;;;2.03;0.50;;;;;;;23.64;90.24;101891.78;5251277;28;20507;-74
2022/07/03 10:36:07;;;;;;;2.08;0.77;;;;;;;23.26;97.11;101887.31;5252713;28;20051;-74
2022/07/03 10:38:41;;;;;;;0.90;0.75;;;;;;;23.09;100.00;101886.19;5251382;28;20020;-74
2022/07/03 10:47:49;;;;;;;2.83;0.77;;;;;;;24.35;93.23;101892.97;5249545;28;20020;-74
2022/07/03 10:50:21;;;;;;;1.15;0.60;;;;;;;24.53;92.08;101896.53;5249997;28;20032;-74
2022/07/03 10:52:52;;;;;;;1.92;0.70;;;;;;;24.56;87.53;101899.91;5254889;28;20090;-74
2022/07/03 10:55:22;;;;;;;3.13;0.85;;;;;;;24.80;89.32;101890.66;5245938;28;20487;-74
2022/07/03 10:58:12;;;;;;;4.55;0.60;;;;;;;25.00;84.64;101896.66;5245482;28;20111;-74
2022/07/03 11:00:56;;;;;;;2.40;0.80;;;;;;;25.29;84.16;101900.38;5256260;28;20024;-74
2022/07/03 11:04:04;;;;;;;3.10;0.80;;;;;;;25.33;80.71;101900.75;5260037;28;20495;-74
2022/07/03 11:06:48;;;;;;;4.07;0.60;;;;;;;25.08;78.05;101891.91;5244860;28;20138;-74
2022/07/03 11:09:18;;;;;;;3.85;0.90;;;;;;;24.91;76.91;101886.25;5258823;28;20063;-74
2022/07/03 11:14:38;;;;;;;7.25;0.57;;;;;;;25.23;77.87;101884.03;5247573;28;20016;-74
2022/07/03 11:17:21;;;;;;;1.73;0.70;;;;;;;24.83;75.94;101879.19;5257308;28;20028;-74
2022/07/03 11:23:07;;;;;;;1.45;0.60;;;;;;;24.81;75.82;101886.84;5262446;28;20134;-74
2022/07/03 11:25:40;;;;;;;1.40;0.50;;;;;;;24.77;73.69;101877.41;5244508;28;20406;-74
2022/07/03 11:28:31;;;;;;;2.03;0.43;;;;;;;24.76;76.63;101873.00;5251152;28;20039;-74
2022/07/03 11:31:21;;;;;;;3.67;0.70;;;;;;;25.16;76.49;101873.19;5251003;28;20191;-74
2022/07/03 11:33:51;;;;;;;1.85;0.55;;;;;;;25.56;77.00;101873.28;5265684;28;20039;-74
2022/07/03 11:36:22;;;;;;;2.05;0.60;;;;;;;25.77;76.37;101880.06;5264904;28;20118;-74
2022/07/03 11:39:05;;;;;;;4.25;1.00;;;;;;;25.67;70.71;101884.47;5252008;28;20111;-74
2022/07/03 11:41:35;;;;;;;2.70;0.63;;;;;;;25.42;73.11;101880.09;5265856;28;20020;-74
2022/07/03 11:44:08;;;;;;;4.13;0.70;;;;;;;25.28;72.06;101881.41;5257307;28;20507;-74
2022/07/03 11:46:39;;;;;;;3.53;0.50;;;;;;;25.03;73.80;101874.22;5257270;28;20488;-74
2022/07/03 11:49:27;;;;;;;5.53;0.90;;;;;;;24.98;73.01;101881.50;5243980;28;20119;-74
2022/07/03 11:52:00;;;;;;;2.17;0.70;;;;;;;24.75;73.29;101883.13;5258326;28;20489;-74
2022/07/03 11:54:49;;;;;;;2.75;0.73;;;;;;;24.58;74.07;101884.03;5244156;28;20031;-74
2022/07/03 11:57:20;;;;;;;0.70;0.50;;;;;;;24.08;74.53;101876.06;5250694;28;20424;-74
2022/07/03 12:00:02;;;;;;;2.05;0.65;;;;;;;23.65;74.95;101879.78;5261797;28;20032;-74
2022/07/03 12:02:48;;;;;;;2.38;0.70;;;;;;;23.66;71.60;101878.72;5257291;28;20046;-74
2022/07/03 12:05:18;;;;;;;3.28;0.75;;;;;;;23.91;76.78;101881.34;5264239;28;20024;-74
2022/07/03 12:08:02;;;;;;;1.92;0.70;;;;;;;24.42;71.30;101863.59;5264825;28;21329;-74
2022/07/03 12:10:48;;;;;;;1.25;0.35;;;;;;;24.71;75.63;101872.88;5264845;28;20028;-74
2022/07/03 12:13:20;;;;;;;6.68;0.80;;;;;;;24.67;66.51;101872.50;5264812;28;20326;-75